Rib Lake, Wisconsin
Current Conditions -  °F | °C
As of 9:55 AM on Friday 21 Nov 2014 (Local Time) from KMDZ Reporting Station
Clear Clear  
Wind Chill: -1°   Ceiling: Unl
Heat Index: 11°   Visibility: 10mi
Dew Point:   Wind: 9mph
Humidity: 68%   Direction: 180°S
Pressure: 30.22"   Gusts: NA
Location:  45.32°N, 90.21°W
Report Text: KMDZ 211555Z AUTO 18008KT 10SM CLR M11/M16 A3022 RMK AO2 T11141163
Loading
Personal Weather Stations






























Interactive Weather Map New forecast layout! Learn more

10-Day Weather Forecast

Advertisements
Track Severe Weather on mobile